sensor_id;sensor_type;location;lat;lon;timestamp;P1;durP1;ratioP1;P2;durP2;ratioP2
10275;SDS011;5183;51.190;6.820;2022-08-19T00:00:26;10.53;;;9.63;;
10275;SDS011;5183;51.190;6.820;2022-08-19T00:02:53;10.80;;;9.67;;
10275;SDS011;5183;51.190;6.820;2022-08-19T00:05:21;11.07;;;9.67;;
10275;SDS011;5183;51.190;6.820;2022-08-19T00:07:49;11.07;;;9.97;;
10275;SDS011;5183;51.190;6.820;2022-08-19T00:10:16;11.77;;;10.40;;
10275;SDS011;5183;51.190;6.820;2022-08-19T00:12:44;11.57;;;10.40;;
10275;SDS011;5183;51.190;6.820;2022-08-19T00:15:12;10.90;;;9.80;;
10275;SDS011;5183;51.190;6.820;2022-08-19T00:17:41;10.47;;;9.57;;
10275;SDS011;5183;51.190;6.820;2022-08-19T00:20:11;11.53;;;10.43;;
10275;SDS011;5183;51.190;6.820;2022-08-19T00:22:43;10.83;;;9.93;;
10275;SDS011;5183;51.190;6.820;2022-08-19T00:25:10;11.93;;;10.83;;
10275;SDS011;5183;51.190;6.820;2022-08-19T00:27:38;10.83;;;9.73;;
10275;SDS011;5183;51.190;6.820;2022-08-19T00:30:06;11.07;;;10.07;;
10275;SDS011;5183;51.190;6.820;2022-08-19T00:32:35;11.00;;;10.00;;
10275;SDS011;5183;51.190;6.820;2022-08-19T00:35:02;11.80;;;10.63;;
10275;SDS011;5183;51.190;6.820;2022-08-19T00:37:30;11.83;;;10.67;;
10275;SDS011;5183;51.190;6.820;2022-08-19T00:39:59;11.73;;;9.87;;
10275;SDS011;5183;51.190;6.820;2022-08-19T00:42:27;11.97;;;10.87;;
10275;SDS011;5183;51.190;6.820;2022-08-19T00:44:54;11.37;;;10.33;;
10275;SDS011;5183;51.190;6.820;2022-08-19T00:47:21;11.97;;;10.77;;
10275;SDS011;5183;51.190;6.820;2022-08-19T00:49:48;11.33;;;10.20;;
10275;SDS011;5183;51.190;6.820;2022-08-19T00:52:20;11.33;;;10.23;;
10275;SDS011;5183;51.190;6.820;2022-08-19T00:54:49;11.80;;;10.80;;
10275;SDS011;5183;51.190;6.820;2022-08-19T00:57:22;12.20;;;11.00;;
10275;SDS011;5183;51.190;6.820;2022-08-19T01:00:06;11.13;;;10.23;;
10275;SDS011;5183;51.190;6.820;2022-08-19T01:02:36;11.63;;;10.53;;
10275;SDS011;5183;51.190;6.820;2022-08-19T01:05:05;12.90;;;11.70;;
10275;SDS011;5183;51.190;6.820;2022-08-19T01:07:34;12.83;;;11.63;;
10275;SDS011;5183;51.190;6.820;2022-08-19T01:10:04;13.53;;;12.23;;
10275;SDS011;5183;51.190;6.820;2022-08-19T01:12:35;13.23;;;11.93;;
10275;SDS011;5183;51.190;6.820;2022-08-19T01:15:02;14.07;;;12.77;;
10275;SDS011;5183;51.190;6.820;2022-08-19T01:17:30;14.10;;;12.90;;
10275;SDS011;5183;51.190;6.820;2022-08-19T01:19:58;14.70;;;13.30;;
10275;SDS011;5183;51.190;6.820;2022-08-19T01:22:28;13.97;;;12.67;;
10275;SDS011;5183;51.190;6.820;2022-08-19T01:24:56;13.23;;;11.83;;
10275;SDS011;5183;51.190;6.820;2022-08-19T01:27:23;13.30;;;12.00;;
10275;SDS011;5183;51.190;6.820;2022-08-19T01:29:50;15.10;;;13.70;;
10275;SDS011;5183;51.190;6.820;2022-08-19T01:32:17;15.37;;;14.07;;
10275;SDS011;5183;51.190;6.820;2022-08-19T01:34:44;14.17;;;12.87;;
10275;SDS011;5183;51.190;6.820;2022-08-19T01:37:12;14.73;;;13.27;;
10275;SDS011;5183;51.190;6.820;2022-08-19T01:39:42;15.63;;;14.03;;
10275;SDS011;5183;51.190;6.820;2022-08-19T01:42:09;16.53;;;14.93;;
10275;SDS011;5183;51.190;6.820;2022-08-19T01:44:37;14.70;;;13.13;;
10275;SDS011;5183;51.190;6.820;2022-08-19T01:47:05;14.10;;;12.80;;
10275;SDS011;5183;51.190;6.820;2022-08-19T01:49:34;13.50;;;12.33;;
10275;SDS011;5183;51.190;6.820;2022-08-19T01:52:02;13.47;;;12.13;;
10275;SDS011;5183;51.190;6.820;2022-08-19T01:54:30;13.73;;;12.30;;
10275;SDS011;5183;51.190;6.820;2022-08-19T01:57:00;13.90;;;12.50;;
10275;SDS011;5183;51.190;6.820;2022-08-19T01:59:29;13.77;;;12.37;;
10275;SDS011;5183;51.190;6.820;2022-08-19T02:01:57;13.77;;;12.43;;
10275;SDS011;5183;51.190;6.820;2022-08-19T02:04:24;12.70;;;11.40;;
10275;SDS011;5183;51.190;6.820;2022-08-19T02:06:51;13.27;;;11.97;;
10275;SDS011;5183;51.190;6.820;2022-08-19T02:09:18;13.90;;;12.50;;
10275;SDS011;5183;51.190;6.820;2022-08-19T02:11:45;16.93;;;15.20;;
10275;SDS011;5183;51.190;6.820;2022-08-19T02:14:13;17.10;;;15.03;;
10275;SDS011;5183;51.190;6.820;2022-08-19T02:16:40;17.67;;;15.93;;
10275;SDS011;5183;51.190;6.820;2022-08-19T02:19:07;17.00;;;15.40;;
10275;SDS011;5183;51.190;6.820;2022-08-19T02:21:35;18.40;;;16.40;;
10275;SDS011;5183;51.190;6.820;2022-08-19T02:24:03;19.23;;;17.43;;
10275;SDS011;5183;51.190;6.820;2022-08-19T02:26:31;19.70;;;17.63;;
10275;SDS011;5183;51.190;6.820;2022-08-19T02:28:58;16.90;;;15.30;;
10275;SDS011;5183;51.190;6.820;2022-08-19T02:31:26;15.70;;;14.20;;
10275;SDS011;5183;51.190;6.820;2022-08-19T02:33:53;14.77;;;13.30;;
10275;SDS011;5183;51.190;6.820;2022-08-19T02:36:21;14.93;;;13.43;;
10275;SDS011;5183;51.190;6.820;2022-08-19T02:38:49;14.37;;;12.93;;
10275;SDS011;5183;51.190;6.820;2022-08-19T02:41:17;14.20;;;13.00;;
10275;SDS011;5183;51.190;6.820;2022-08-19T02:43:46;13.57;;;12.27;;
10275;SDS011;5183;51.190;6.820;2022-08-19T02:46:14;13.57;;;12.27;;
10275;SDS011;5183;51.190;6.820;2022-08-19T02:48:47;14.20;;;12.80;;
10275;SDS011;5183;51.190;6.820;2022-08-19T02:51:18;14.47;;;13.10;;
10275;SDS011;5183;51.190;6.820;2022-08-19T02:53:46;14.53;;;13.10;;
10275;SDS011;5183;51.190;6.820;2022-08-19T02:56:13;13.50;;;12.30;;
10275;SDS011;5183;51.190;6.820;2022-08-19T02:58:41;13.90;;;12.60;;
10275;SDS011;5183;51.190;6.820;2022-08-19T03:01:09;13.80;;;12.50;;
10275;SDS011;5183;51.190;6.820;2022-08-19T03:03:37;13.53;;;12.33;;
10275;SDS011;5183;51.190;6.820;2022-08-19T03:06:07;13.43;;;12.30;;
10275;SDS011;5183;51.190;6.820;2022-08-19T03:08:35;13.47;;;12.17;;
10275;SDS011;5183;51.190;6.820;2022-08-19T03:11:02;14.10;;;12.70;;
10275;SDS011;5183;51.190;6.820;2022-08-19T03:13:30;14.10;;;12.60;;
10275;SDS011;5183;51.190;6.820;2022-08-19T03:15:57;14.10;;;12.77;;
10275;SDS011;5183;51.190;6.820;2022-08-19T03:18:23;13.90;;;12.57;;
10275;SDS011;5183;51.190;6.820;2022-08-19T03:20:51;17.33;;;15.57;;
10275;SDS011;5183;51.190;6.820;2022-08-19T03:23:21;19.93;;;17.93;;
10275;SDS011;5183;51.190;6.820;2022-08-19T03:25:49;22.00;;;19.87;;
10275;SDS011;5183;51.190;6.820;2022-08-19T03:28:18;21.33;;;19.23;;
10275;SDS011;5183;51.190;6.820;2022-08-19T03:30:56;23.77;;;21.47;;
10275;SDS011;5183;51.190;6.820;2022-08-19T03:33:24;22.90;;;20.60;;
10275;SDS011;5183;51.190;6.820;2022-08-19T03:36:04;23.27;;;21.07;;
10275;SDS011;5183;51.190;6.820;2022-08-19T03:38:35;25.00;;;22.57;;
10275;SDS011;5183;51.190;6.820;2022-08-19T03:41:03;24.73;;;22.23;;
10275;SDS011;5183;51.190;6.820;2022-08-19T03:43:33;24.47;;;22.03;;
10275;SDS011;5183;51.190;6.820;2022-08-19T03:46:02;28.10;;;25.00;;
10275;SDS011;5183;51.190;6.820;2022-08-19T03:48:31;28.73;;;25.77;;
10275;SDS011;5183;51.190;6.820;2022-08-19T03:50:58;26.87;;;24.27;;
10275;SDS011;5183;51.190;6.820;2022-08-19T03:53:25;29.93;;;26.83;;
10275;SDS011;5183;51.190;6.820;2022-08-19T03:55:55;34.37;;;30.73;;
10275;SDS011;5183;51.190;6.820;2022-08-19T03:58:23;33.07;;;29.87;;
10275;SDS011;5183;51.190;6.820;2022-08-19T04:00:50;33.20;;;29.77;;
10275;SDS011;5183;51.190;6.820;2022-08-19T04:03:17;34.70;;;31.30;;
10275;SDS011;5183;51.190;6.820;2022-08-19T04:05:45;34.90;;;31.40;;
10275;SDS011;5183;51.190;6.820;2022-08-19T04:08:12;32.73;;;29.47;;
10275;SDS011;5183;51.190;6.820;2022-08-19T04:10:45;37.63;;;33.97;;
10275;SDS011;5183;51.190;6.820;2022-08-19T04:13:14;35.90;;;32.17;;
10275;SDS011;5183;51.190;6.820;2022-08-19T04:15:42;34.77;;;31.20;;
10275;SDS011;5183;51.190;6.820;2022-08-19T04:18:12;35.33;;;31.80;;
10275;SDS011;5183;51.190;6.820;2022-08-19T04:20:43;36.53;;;32.73;;
10275;SDS011;5183;51.190;6.820;2022-08-19T04:23:11;33.53;;;30.20;;
10275;SDS011;5183;51.190;6.820;2022-08-19T04:25:39;35.60;;;32.10;;
10275;SDS011;5183;51.190;6.820;2022-08-19T04:28:08;37.10;;;33.13;;
10275;SDS011;5183;51.190;6.820;2022-08-19T04:30:41;36.97;;;33.30;;
10275;SDS011;5183;51.190;6.820;2022-08-19T04:33:10;37.17;;;33.43;;
10275;SDS011;5183;51.190;6.820;2022-08-19T04:35:41;36.07;;;32.47;;
10275;SDS011;5183;51.190;6.820;2022-08-19T04:38:10;37.43;;;33.73;;
10275;SDS011;5183;51.190;6.820;2022-08-19T04:40:39;37.67;;;33.70;;
10275;SDS011;5183;51.190;6.820;2022-08-19T04:43:24;37.97;;;34.27;;
10275;SDS011;5183;51.190;6.820;2022-08-19T04:45:52;38.60;;;34.53;;
10275;SDS011;5183;51.190;6.820;2022-08-19T04:48:20;40.73;;;36.17;;
10275;SDS011;5183;51.190;6.820;2022-08-19T04:50:51;39.60;;;35.43;;
10275;SDS011;5183;51.190;6.820;2022-08-19T04:53:22;40.67;;;36.47;;
10275;SDS011;5183;51.190;6.820;2022-08-19T04:55:49;41.77;;;37.57;;
10275;SDS011;5183;51.190;6.820;2022-08-19T04:58:17;44.97;;;40.27;;
10275;SDS011;5183;51.190;6.820;2022-08-19T05:00:44;44.97;;;40.30;;
10275;SDS011;5183;51.190;6.820;2022-08-19T05:03:12;43.23;;;38.63;;
10275;SDS011;5183;51.190;6.820;2022-08-19T05:05:42;45.87;;;41.13;;
10275;SDS011;5183;51.190;6.820;2022-08-19T05:08:10;44.03;;;39.53;;
10275;SDS011;5183;51.190;6.820;2022-08-19T05:10:37;48.00;;;42.90;;
10275;SDS011;5183;51.190;6.820;2022-08-19T05:13:05;51.45;;;46.08;;
10275;SDS011;5183;51.190;6.820;2022-08-19T05:15:34;49.90;;;44.60;;
10275;SDS011;5183;51.190;6.820;2022-08-19T05:18:01;52.50;;;46.80;;
10275;SDS011;5183;51.190;6.820;2022-08-19T05:20:43;51.27;;;45.80;;
10275;SDS011;5183;51.190;6.820;2022-08-19T05:23:27;56.30;;;48.87;;
10275;SDS011;5183;51.190;6.820;2022-08-19T05:25:54;54.43;;;48.63;;
10275;SDS011;5183;51.190;6.820;2022-08-19T05:28:21;57.27;;;51.20;;
10275;SDS011;5183;51.190;6.820;2022-08-19T05:30:47;60.33;;;52.67;;
10275;SDS011;5183;51.190;6.820;2022-08-19T05:33:15;56.57;;;50.57;;
10275;SDS011;5183;51.190;6.820;2022-08-19T05:35:44;59.50;;;53.13;;
10275;SDS011;5183;51.190;6.820;2022-08-19T05:38:11;56.60;;;50.50;;
10275;SDS011;5183;51.190;6.820;2022-08-19T05:40:38;59.47;;;53.00;;
10275;SDS011;5183;51.190;6.820;2022-08-19T05:43:06;58.60;;;52.20;;
10275;SDS011;5183;51.190;6.820;2022-08-19T05:45:37;56.83;;;50.77;;
10275;SDS011;5183;51.190;6.820;2022-08-19T05:48:05;61.17;;;53.90;;
10275;SDS011;5183;51.190;6.820;2022-08-19T05:50:31;59.27;;;52.80;;
10275;SDS011;5183;51.190;6.820;2022-08-19T05:53:00;60.60;;;51.87;;
10275;SDS011;5183;51.190;6.820;2022-08-19T05:55:26;57.10;;;50.80;;
10275;SDS011;5183;51.190;6.820;2022-08-19T05:57:53;58.00;;;51.57;;
10275;SDS011;5183;51.190;6.820;2022-08-19T06:00:20;59.93;;;53.53;;
10275;SDS011;5183;51.190;6.820;2022-08-19T06:02:48;62.47;;;55.70;;
10275;SDS011;5183;51.190;6.820;2022-08-19T06:05:16;64.23;;;54.13;;
10275;SDS011;5183;51.190;6.820;2022-08-19T06:07:43;63.43;;;55.03;;
10275;SDS011;5183;51.190;6.820;2022-08-19T06:10:11;67.10;;;56.10;;
10275;SDS011;5183;51.190;6.820;2022-08-19T06:12:38;61.63;;;54.77;;
10275;SDS011;5183;51.190;6.820;2022-08-19T06:15:06;61.40;;;54.67;;
10275;SDS011;5183;51.190;6.820;2022-08-19T06:17:35;63.97;;;55.90;;
10275;SDS011;5183;51.190;6.820;2022-08-19T06:20:03;61.37;;;54.33;;
10275;SDS011;5183;51.190;6.820;2022-08-19T06:22:31;64.90;;;53.67;;
10275;SDS011;5183;51.190;6.820;2022-08-19T06:25:03;63.10;;;53.63;;
10275;SDS011;5183;51.190;6.820;2022-08-19T06:27:32;60.93;;;53.70;;
10275;SDS011;5183;51.190;6.820;2022-08-19T06:29:59;59.40;;;52.93;;
10275;SDS011;5183;51.190;6.820;2022-08-19T06:32:26;59.07;;;52.60;;
10275;SDS011;5183;51.190;6.820;2022-08-19T06:34:53;61.53;;;54.07;;
10275;SDS011;5183;51.190;6.820;2022-08-19T06:37:20;64.23;;;56.37;;
10275;SDS011;5183;51.190;6.820;2022-08-19T06:39:47;58.40;;;52.17;;
10275;SDS011;5183;51.190;6.820;2022-08-19T06:42:16;61.30;;;53.47;;
10275;SDS011;5183;51.190;6.820;2022-08-19T06:44:45;63.10;;;54.30;;
10275;SDS011;5183;51.190;6.820;2022-08-19T06:47:15;63.83;;;54.53;;
10275;SDS011;5183;51.190;6.820;2022-08-19T06:49:44;61.40;;;53.40;;
10275;SDS011;5183;51.190;6.820;2022-08-19T06:52:11;63.60;;;56.10;;
10275;SDS011;5183;51.190;6.820;2022-08-19T06:54:39;64.87;;;55.40;;
10275;SDS011;5183;51.190;6.820;2022-08-19T06:57:07;66.23;;;55.40;;
10275;SDS011;5183;51.190;6.820;2022-08-19T06:59:38;62.43;;;53.97;;
10275;SDS011;5183;51.190;6.820;2022-08-19T07:02:07;67.43;;;57.00;;
10275;SDS011;5183;51.190;6.820;2022-08-19T07:04:34;62.67;;;53.23;;
10275;SDS011;5183;51.190;6.820;2022-08-19T07:07:04;65.70;;;55.53;;
10275;SDS011;5183;51.190;6.820;2022-08-19T07:09:34;61.00;;;53.37;;
10275;SDS011;5183;51.190;6.820;2022-08-19T07:12:03;66.63;;;55.57;;
10275;SDS011;5183;51.190;6.820;2022-08-19T07:14:32;62.30;;;54.00;;
10275;SDS011;5183;51.190;6.820;2022-08-19T07:17:02;64.97;;;54.13;;
10275;SDS011;5183;51.190;6.820;2022-08-19T07:19:32;62.00;;;51.90;;
10275;SDS011;5183;51.190;6.820;2022-08-19T07:22:00;60.83;;;52.53;;
10275;SDS011;5183;51.190;6.820;2022-08-19T07:24:28;59.10;;;51.57;;
10275;SDS011;5183;51.190;6.820;2022-08-19T07:26:57;61.17;;;51.50;;
10275;SDS011;5183;51.190;6.820;2022-08-19T07:29:27;61.60;;;51.90;;
10275;SDS011;5183;51.190;6.820;2022-08-19T07:31:56;59.37;;;51.73;;
10275;SDS011;5183;51.190;6.820;2022-08-19T07:34:24;60.77;;;51.47;;
10275;SDS011;5183;51.190;6.820;2022-08-19T07:36:53;58.67;;;49.93;;
10275;SDS011;5183;51.190;6.820;2022-08-19T07:39:21;59.27;;;50.53;;
10275;SDS011;5183;51.190;6.820;2022-08-19T07:41:50;52.03;;;46.13;;
10275;SDS011;5183;51.190;6.820;2022-08-19T07:44:17;59.00;;;49.47;;
10275;SDS011;5183;51.190;6.820;2022-08-19T07:46:46;55.67;;;47.87;;
10275;SDS011;5183;51.190;6.820;2022-08-19T07:49:15;50.50;;;45.03;;
10275;SDS011;5183;51.190;6.820;2022-08-19T07:51:44;49.47;;;44.00;;
10275;SDS011;5183;51.190;6.820;2022-08-19T07:54:13;46.93;;;41.57;;
10275;SDS011;5183;51.190;6.820;2022-08-19T07:56:40;46.90;;;41.83;;
10275;SDS011;5183;51.190;6.820;2022-08-19T07:59:07;46.50;;;40.93;;
10275;SDS011;5183;51.190;6.820;2022-08-19T08:01:34;45.00;;;39.47;;
10275;SDS011;5183;51.190;6.820;2022-08-19T08:04:01;43.23;;;38.67;;
10275;SDS011;5183;51.190;6.820;2022-08-19T08:06:46;43.77;;;37.60;;
10275;SDS011;5183;51.190;6.820;2022-08-19T08:09:33;39.40;;;35.00;;
10275;SDS011;5183;51.190;6.820;2022-08-19T08:12:03;38.93;;;34.47;;
10275;SDS011;5183;51.190;6.820;2022-08-19T08:14:33;40.13;;;35.83;;
10275;SDS011;5183;51.190;6.820;2022-08-19T08:17:02;34.90;;;31.20;;
10275;SDS011;5183;51.190;6.820;2022-08-19T08:19:31;36.00;;;31.07;;
10275;SDS011;5183;51.190;6.820;2022-08-19T08:21:59;35.03;;;31.20;;
10275;SDS011;5183;51.190;6.820;2022-08-19T08:24:28;36.37;;;29.63;;
10275;SDS011;5183;51.190;6.820;2022-08-19T08:26:58;37.53;;;30.37;;
10275;SDS011;5183;51.190;6.820;2022-08-19T08:29:26;37.07;;;32.70;;
10275;SDS011;5183;51.190;6.820;2022-08-19T08:31:55;36.77;;;32.87;;
10275;SDS011;5183;51.190;6.820;2022-08-19T08:34:23;42.70;;;34.97;;
10275;SDS011;5183;51.190;6.820;2022-08-19T08:36:50;40.73;;;34.90;;
10275;SDS011;5183;51.190;6.820;2022-08-19T08:39:19;46.27;;;38.83;;
10275;SDS011;5183;51.190;6.820;2022-08-19T08:41:49;43.47;;;37.57;;
10275;SDS011;5183;51.190;6.820;2022-08-19T08:47:11;46.63;;;39.73;;
10275;SDS011;5183;51.190;6.820;2022-08-19T08:49:43;50.43;;;40.87;;
10275;SDS011;5183;51.190;6.820;2022-08-19T08:52:15;47.57;;;39.07;;
10275;SDS011;5183;51.190;6.820;2022-08-19T08:54:47;48.20;;;38.17;;
10275;SDS011;5183;51.190;6.820;2022-08-19T08:57:17;47.23;;;39.77;;
10275;SDS011;5183;51.190;6.820;2022-08-19T08:59:51;41.20;;;36.03;;
10275;SDS011;5183;51.190;6.820;2022-08-19T09:02:22;41.17;;;36.67;;
10275;SDS011;5183;51.190;6.820;2022-08-19T09:04:49;40.83;;;34.73;;
10275;SDS011;5183;51.190;6.820;2022-08-19T09:07:29;42.63;;;35.97;;
10275;SDS011;5183;51.190;6.820;2022-08-19T09:10:09;37.67;;;33.57;;
10275;SDS011;5183;51.190;6.820;2022-08-19T09:12:44;37.27;;;32.80;;
10275;SDS011;5183;51.190;6.820;2022-08-19T09:15:28;42.10;;;34.73;;
10275;SDS011;5183;51.190;6.820;2022-08-19T09:17:59;42.93;;;34.73;;
10275;SDS011;5183;51.190;6.820;2022-08-19T09:20:28;40.37;;;32.90;;
10275;SDS011;5183;51.190;6.820;2022-08-19T09:22:57;37.70;;;31.47;;
10275;SDS011;5183;51.190;6.820;2022-08-19T09:25:24;45.63;;;37.47;;
10275;SDS011;5183;51.190;6.820;2022-08-19T09:27:52;38.83;;;33.30;;
10275;SDS011;5183;51.190;6.820;2022-08-19T09:30:24;31.17;;;27.80;;
10275;SDS011;5183;51.190;6.820;2022-08-19T09:32:52;31.03;;;25.53;;
10275;SDS011;5183;51.190;6.820;2022-08-19T09:35:20;26.63;;;23.27;;
10275;SDS011;5183;51.190;6.820;2022-08-19T09:37:48;26.03;;;23.23;;
10275;SDS011;5183;51.190;6.820;2022-08-19T09:40:15;26.03;;;22.00;;
10275;SDS011;5183;51.190;6.820;2022-08-19T09:42:43;26.47;;;23.13;;
10275;SDS011;5183;51.190;6.820;2022-08-19T09:45:12;25.30;;;22.60;;
10275;SDS011;5183;51.190;6.820;2022-08-19T09:47:40;25.47;;;21.20;;
10275;SDS011;5183;51.190;6.820;2022-08-19T09:50:09;28.97;;;25.50;;
10275;SDS011;5183;51.190;6.820;2022-08-19T09:52:38;29.60;;;25.17;;
10275;SDS011;5183;51.190;6.820;2022-08-19T09:55:08;29.47;;;26.37;;
10275;SDS011;5183;51.190;6.820;2022-08-19T09:57:36;29.63;;;26.47;;
10275;SDS011;5183;51.190;6.820;2022-08-19T10:00:05;28.40;;;24.23;;
10275;SDS011;5183;51.190;6.820;2022-08-19T10:02:34;27.53;;;24.53;;
10275;SDS011;5183;51.190;6.820;2022-08-19T10:05:03;25.07;;;22.60;;
10275;SDS011;5183;51.190;6.820;2022-08-19T10:07:48;23.50;;;21.17;;
10275;SDS011;5183;51.190;6.820;2022-08-19T10:10:15;23.03;;;20.63;;
10275;SDS011;5183;51.190;6.820;2022-08-19T10:12:43;20.23;;;18.13;;
10275;SDS011;5183;51.190;6.820;2022-08-19T10:15:12;18.43;;;16.53;;
10275;SDS011;5183;51.190;6.820;2022-08-19T10:17:39;20.70;;;18.20;;
10275;SDS011;5183;51.190;6.820;2022-08-19T10:20:08;19.97;;;17.90;;
10275;SDS011;5183;51.190;6.820;2022-08-19T10:22:35;21.93;;;19.53;;
10275;SDS011;5183;51.190;6.820;2022-08-19T10:25:03;22.93;;;20.53;;
10275;SDS011;5183;51.190;6.820;2022-08-19T10:27:32;20.63;;;18.40;;
10275;SDS011;5183;51.190;6.820;2022-08-19T10:29:59;19.27;;;17.27;;
10275;SDS011;5183;51.190;6.820;2022-08-19T10:32:26;20.93;;;18.90;;
10275;SDS011;5183;51.190;6.820;2022-08-19T10:34:54;20.20;;;18.17;;
10275;SDS011;5183;51.190;6.820;2022-08-19T10:37:22;20.20;;;17.93;;
10275;SDS011;5183;51.190;6.820;2022-08-19T10:39:49;19.80;;;16.47;;
10275;SDS011;5183;51.190;6.820;2022-08-19T10:42:16;17.00;;;14.83;;
10275;SDS011;5183;51.190;6.820;2022-08-19T10:44:43;18.90;;;15.83;;
10275;SDS011;5183;51.190;6.820;2022-08-19T10:47:12;16.70;;;14.97;;
10275;SDS011;5183;51.190;6.820;2022-08-19T10:49:39;17.03;;;15.30;;
10275;SDS011;5183;51.190;6.820;2022-08-19T10:52:20;17.10;;;15.17;;
10275;SDS011;5183;51.190;6.820;2022-08-19T10:55:04;16.33;;;14.70;;
10275;SDS011;5183;51.190;6.820;2022-08-19T10:57:49;17.77;;;14.70;;
10275;SDS011;5183;51.190;6.820;2022-08-19T11:00:18;15.17;;;13.70;;
10275;SDS011;5183;51.190;6.820;2022-08-19T11:02:45;14.30;;;12.83;;
10275;SDS011;5183;51.190;6.820;2022-08-19T11:05:12;15.53;;;12.83;;
10275;SDS011;5183;51.190;6.820;2022-08-19T11:07:39;15.03;;;13.63;;
10275;SDS011;5183;51.190;6.820;2022-08-19T11:10:09;15.90;;;14.20;;
10275;SDS011;5183;51.190;6.820;2022-08-19T11:12:38;16.00;;;14.30;;
10275;SDS011;5183;51.190;6.820;2022-08-19T11:15:07;16.13;;;14.57;;
10275;SDS011;5183;51.190;6.820;2022-08-19T11:17:36;16.03;;;14.40;;
10275;SDS011;5183;51.190;6.820;2022-08-19T11:20:05;16.73;;;15.07;;
10275;SDS011;5183;51.190;6.820;2022-08-19T11:22:33;17.17;;;15.37;;
10275;SDS011;5183;51.190;6.820;2022-08-19T11:25:01;17.27;;;15.47;;
10275;SDS011;5183;51.190;6.820;2022-08-19T11:27:30;18.57;;;16.13;;
10275;SDS011;5183;51.190;6.820;2022-08-19T11:29:57;14.73;;;13.30;;
10275;SDS011;5183;51.190;6.820;2022-08-19T11:32:24;16.43;;;14.80;;
10275;SDS011;5183;51.190;6.820;2022-08-19T11:34:51;16.07;;;14.37;;
10275;SDS011;5183;51.190;6.820;2022-08-19T11:37:18;15.67;;;14.07;;
10275;SDS011;5183;51.190;6.820;2022-08-19T11:39:45;14.93;;;13.43;;
10275;SDS011;5183;51.190;6.820;2022-08-19T11:42:12;12.13;;;10.97;;
10275;SDS011;5183;51.190;6.820;2022-08-19T11:44:58;12.03;;;10.83;;
10275;SDS011;5183;51.190;6.820;2022-08-19T11:47:25;13.70;;;12.40;;
10275;SDS011;5183;51.190;6.820;2022-08-19T11:49:52;13.47;;;11.53;;
10275;SDS011;5183;51.190;6.820;2022-08-19T11:52:19;12.03;;;10.90;;
10275;SDS011;5183;51.190;6.820;2022-08-19T11:54:46;12.37;;;11.07;;
10275;SDS011;5183;51.190;6.820;2022-08-19T11:57:13;13.20;;;10.20;;
10275;SDS011;5183;51.190;6.820;2022-08-19T11:59:42;13.60;;;10.73;;
10275;SDS011;5183;51.190;6.820;2022-08-19T12:02:14;11.73;;;9.18;;
10275;SDS011;5183;51.190;6.820;2022-08-19T12:04:41;8.63;;;7.82;;
10275;SDS011;5183;51.190;6.820;2022-08-19T12:07:08;8.23;;;7.30;;
10275;SDS011;5183;51.190;6.820;2022-08-19T12:09:35;7.97;;;7.18;;
10275;SDS011;5183;51.190;6.820;2022-08-19T12:12:04;9.75;;;8.75;;
10275;SDS011;5183;51.190;6.820;2022-08-19T12:14:31;12.17;;;10.13;;
10275;SDS011;5183;51.190;6.820;2022-08-19T12:16:58;13.38;;;10.35;;
10275;SDS011;5183;51.190;6.820;2022-08-19T12:19:26;11.88;;;9.68;;
10275;SDS011;5183;51.190;6.820;2022-08-19T12:21:54;11.43;;;10.23;;
10275;SDS011;5183;51.190;6.820;2022-08-19T12:24:26;11.37;;;10.13;;
10275;SDS011;5183;51.190;6.820;2022-08-19T12:26:54;10.50;;;9.13;;
10275;SDS011;5183;51.190;6.820;2022-08-19T12:29:21;11.63;;;10.43;;
10275;SDS011;5183;51.190;6.820;2022-08-19T12:31:49;11.48;;;9.88;;
10275;SDS011;5183;51.190;6.820;2022-08-19T12:34:16;12.13;;;9.90;;
10275;SDS011;5183;51.190;6.820;2022-08-19T12:36:46;12.90;;;10.53;;
10275;SDS011;5183;51.190;6.820;2022-08-19T12:39:14;9.80;;;8.80;;
10275;SDS011;5183;51.190;6.820;2022-08-19T12:41:41;10.00;;;9.00;;
10275;SDS011;5183;51.190;6.820;2022-08-19T12:44:08;8.82;;;7.50;;
10275;SDS011;5183;51.190;6.820;2022-08-19T12:46:35;9.90;;;7.95;;
10275;SDS011;5183;51.190;6.820;2022-08-19T12:49:02;8.85;;;7.45;;
10275;SDS011;5183;51.190;6.820;2022-08-19T12:51:29;8.68;;;7.88;;
10275;SDS011;5183;51.190;6.820;2022-08-19T12:53:57;8.95;;;7.90;;
10275;SDS011;5183;51.190;6.820;2022-08-19T12:56:24;9.18;;;7.05;;
10275;SDS011;5183;51.190;6.820;2022-08-19T12:58:52;7.85;;;7.15;;
10275;SDS011;5183;51.190;6.820;2022-08-19T13:01:19;8.98;;;8.10;;
10275;SDS011;5183;51.190;6.820;2022-08-19T13:03:46;6.40;;;5.80;;
10275;SDS011;5183;51.190;6.820;2022-08-19T13:06:13;6.65;;;5.38;;
10275;SDS011;5183;51.190;6.820;2022-08-19T13:08:41;6.43;;;5.78;;
10275;SDS011;5183;51.190;6.820;2022-08-19T13:11:11;8.70;;;7.80;;
10275;SDS011;5183;51.190;6.820;2022-08-19T13:13:40;9.60;;;6.78;;
10275;SDS011;5183;51.190;6.820;2022-08-19T13:16:08;8.13;;;7.10;;
10275;SDS011;5183;51.190;6.820;2022-08-19T13:18:37;6.68;;;5.97;;
10275;SDS011;5183;51.190;6.820;2022-08-19T13:21:05;7.10;;;6.40;;
10275;SDS011;5183;51.190;6.820;2022-08-19T13:23:33;5.90;;;5.30;;
10275;SDS011;5183;51.190;6.820;2022-08-19T13:26:02;7.10;;;5.63;;
10275;SDS011;5183;51.190;6.820;2022-08-19T13:28:33;6.47;;;5.82;;
10275;SDS011;5183;51.190;6.820;2022-08-19T13:31:15;7.10;;;6.35;;
10275;SDS011;5183;51.190;6.820;2022-08-19T13:34:00;5.95;;;5.20;;
10275;SDS011;5183;51.190;6.820;2022-08-19T13:36:27;5.25;;;4.80;;
10275;SDS011;5183;51.190;6.820;2022-08-19T13:38:54;6.68;;;5.20;;
10275;SDS011;5183;51.190;6.820;2022-08-19T13:41:21;8.23;;;5.55;;
10275;SDS011;5183;51.190;6.820;2022-08-19T13:43:49;10.07;;;6.13;;
10275;SDS011;5183;51.190;6.820;2022-08-19T13:46:16;5.70;;;4.72;;
10275;SDS011;5183;51.190;6.820;2022-08-19T13:48:44;6.15;;;4.80;;
10275;SDS011;5183;51.190;6.820;2022-08-19T13:51:13;7.50;;;5.43;;
10275;SDS011;5183;51.190;6.820;2022-08-19T13:53:41;6.03;;;4.90;;
10275;SDS011;5183;51.190;6.820;2022-08-19T13:56:10;7.10;;;5.07;;
10275;SDS011;5183;51.190;6.820;2022-08-19T13:58:38;6.60;;;5.88;;
10275;SDS011;5183;51.190;6.820;2022-08-19T14:01:07;6.35;;;5.75;;
10275;SDS011;5183;51.190;6.820;2022-08-19T14:03:35;6.93;;;5.35;;
10275;SDS011;5183;51.190;6.820;2022-08-19T14:06:02;8.60;;;5.68;;
10275;SDS011;5183;51.190;6.820;2022-08-19T14:08:30;5.78;;;5.05;;
10275;SDS011;5183;51.190;6.820;2022-08-19T14:10:57;5.93;;;5.40;;
10275;SDS011;5183;51.190;6.820;2022-08-19T14:13:24;6.47;;;5.33;;
10275;SDS011;5183;51.190;6.820;2022-08-19T14:15:51;6.63;;;5.15;;
10275;SDS011;5183;51.190;6.820;2022-08-19T14:18:21;6.18;;;4.72;;
10275;SDS011;5183;51.190;6.820;2022-08-19T14:20:47;5.60;;;4.50;;
10275;SDS011;5183;51.190;6.820;2022-08-19T14:23:14;7.72;;;5.22;;
10275;SDS011;5183;51.190;6.820;2022-08-19T14:25:42;6.30;;;4.85;;
10275;SDS011;5183;51.190;6.820;2022-08-19T14:28:09;7.43;;;3.95;;
10275;SDS011;5183;51.190;6.820;2022-08-19T14:30:36;5.80;;;4.07;;
10275;SDS011;5183;51.190;6.820;2022-08-19T14:33:03;3.53;;;3.22;;
10275;SDS011;5183;51.190;6.820;2022-08-19T14:35:33;5.38;;;3.88;;
10275;SDS011;5183;51.190;6.820;2022-08-19T14:38:00;5.88;;;3.90;;
10275;SDS011;5183;51.190;6.820;2022-08-19T14:40:28;6.88;;;4.43;;
10275;SDS011;5183;51.190;6.820;2022-08-19T14:42:57;5.45;;;4.20;;
10275;SDS011;5183;51.190;6.820;2022-08-19T14:45:29;4.97;;;3.42;;
10275;SDS011;5183;51.190;6.820;2022-08-19T14:47:57;7.47;;;4.00;;
10275;SDS011;5183;51.190;6.820;2022-08-19T14:50:25;7.30;;;4.05;;